Pagrindinis puslapis
METAR-TAF:

METAR-TAF

Oro uostai :

Kiutahija, Turkija

platuma: 39-06-41N, ilguma: 30-07-48E, Aukštis: 1013 m

METAR: trūkstamas

Laikas: 02:40 (23:40 UTC)

Prognozė

Ataskaita buvo paskelbta 1 valandą ir 0 minutes, ne 22:40 UTC
Prognozė galioja nuo 07 metu 00 UTC su 07 metu 09 UTC
Vėjas 8 kt iš Šiaurės/Šiaurės Rytų
Matomumas 10 km arba daugiau
Išsisklaidę debesys ne aukštis 1500 ft
Su prošvaistėmis ne aukštis 3500 ft
Apsiniaukę ne aukštis 10000 ft
Laikinai
nuo 07 metu 00 UTC su 07 metu 03 UTC
lietus
Laikinai
nuo 07 metu 03 UTC su 07 metu 06 UTC
lietus, sniegas
Tapsmas
nuo 07 metu 06 UTC su 07 metu 09 UTC
Išsisklaidę debesys ne aukštis 3500 ft
Su prošvaistėmis ne aukštis 9000 ft

TAF: LTBZ 062240Z 0700/0709 02008KT 9999 SCT015 BKN035 OVC100 TEMPO 0700/0703 -RA TEMPO 0703/0706 -RASN BECMG 0706/0709 SCT035 BKN090

Orai ataskaitas ir orų prognozės (METAR, TAF).

turimą stotys yra geltonos ir raudonos taškus žemėlapyje.

Perkelti pele per norėdami pamatyti stoties vardą.

Tada spustelėkite, norėdami matyti oro stebėjimo ir prognozės.

Norėdami pakeisti žemėlapį: spustelėkite ant žalios mygtukų su juodo kryžiaus žemyn,; žalią mygtuką su brūkšneliu, jei norite nutolinti; arba žalių rodyklių gretimoms žemėlapius.


METAR-TAF: